sensor_id;sensor_type;location;lat;lon;timestamp;P1;durP1;ratioP1;P2;durP2;ratioP2
11092;SDS011;5600;50.864;6.102;2023-11-21T00:00:37;84.33;;;12.83;;
11092;SDS011;5600;50.864;6.102;2023-11-21T00:03:37;71.20;;;12.20;;
11092;SDS011;5600;50.864;6.102;2023-11-21T00:06:39;73.30;;;12.07;;
11092;SDS011;5600;50.864;6.102;2023-11-21T00:09:41;75.70;;;12.73;;
11092;SDS011;5600;50.864;6.102;2023-11-21T00:12:42;74.43;;;12.53;;
11092;SDS011;5600;50.864;6.102;2023-11-21T00:15:43;117.67;;;14.50;;
11092;SDS011;5600;50.864;6.102;2023-11-21T00:18:45;73.00;;;13.43;;
11092;SDS011;5600;50.864;6.102;2023-11-21T00:21:46;82.40;;;12.63;;
11092;SDS011;5600;50.864;6.102;2023-11-21T00:24:47;82.97;;;13.80;;
11092;SDS011;5600;50.864;6.102;2023-11-21T00:27:49;49.53;;;12.30;;
11092;SDS011;5600;50.864;6.102;2023-11-21T00:30:50;72.30;;;12.13;;
11092;SDS011;5600;50.864;6.102;2023-11-21T00:33:51;61.00;;;12.73;;
11092;SDS011;5600;50.864;6.102;2023-11-21T00:36:52;86.80;;;13.50;;
11092;SDS011;5600;50.864;6.102;2023-11-21T00:39:52;81.07;;;13.77;;
11092;SDS011;5600;50.864;6.102;2023-11-21T00:42:53;79.87;;;13.10;;
11092;SDS011;5600;50.864;6.102;2023-11-21T00:45:56;169.80;;;17.10;;
11092;SDS011;5600;50.864;6.102;2023-11-21T00:48:57;116.27;;;15.13;;
11092;SDS011;5600;50.864;6.102;2023-11-21T00:51:58;96.03;;;13.93;;
11092;SDS011;5600;50.864;6.102;2023-11-21T00:55:00;83.40;;;14.03;;
11092;SDS011;5600;50.864;6.102;2023-11-21T00:58:02;51.80;;;13.07;;
11092;SDS011;5600;50.864;6.102;2023-11-21T01:01:04;86.10;;;14.17;;
11092;SDS011;5600;50.864;6.102;2023-11-21T01:04:06;103.87;;;14.43;;
11092;SDS011;5600;50.864;6.102;2023-11-21T01:07:08;100.33;;;14.17;;
11092;SDS011;5600;50.864;6.102;2023-11-21T01:10:09;87.90;;;12.70;;
11092;SDS011;5600;50.864;6.102;2023-11-21T01:13:11;91.17;;;13.80;;
11092;SDS011;5600;50.864;6.102;2023-11-21T01:16:12;79.60;;;13.00;;
11092;SDS011;5600;50.864;6.102;2023-11-21T01:19:14;65.50;;;12.63;;
11092;SDS011;5600;50.864;6.102;2023-11-21T01:22:15;63.80;;;12.20;;
11092;SDS011;5600;50.864;6.102;2023-11-21T01:25:16;52.10;;;10.87;;
11092;SDS011;5600;50.864;6.102;2023-11-21T01:28:17;73.30;;;12.90;;
11092;SDS011;5600;50.864;6.102;2023-11-21T01:31:19;101.37;;;14.47;;
11092;SDS011;5600;50.864;6.102;2023-11-21T01:34:21;75.30;;;14.30;;
11092;SDS011;5600;50.864;6.102;2023-11-21T01:37:22;104.73;;;15.40;;
11092;SDS011;5600;50.864;6.102;2023-11-21T01:40:22;95.83;;;15.83;;
11092;SDS011;5600;50.864;6.102;2023-11-21T01:43:24;113.57;;;16.37;;
11092;SDS011;5600;50.864;6.102;2023-11-21T01:46:25;87.73;;;15.40;;
11092;SDS011;5600;50.864;6.102;2023-11-21T01:49:27;96.33;;;14.83;;
11092;SDS011;5600;50.864;6.102;2023-11-21T01:52:28;71.70;;;14.50;;
11092;SDS011;5600;50.864;6.102;2023-11-21T01:55:30;102.80;;;15.57;;
11092;SDS011;5600;50.864;6.102;2023-11-21T01:58:31;95.90;;;16.20;;
11092;SDS011;5600;50.864;6.102;2023-11-21T02:01:33;101.90;;;16.93;;
11092;SDS011;5600;50.864;6.102;2023-11-21T02:04:34;59.73;;;16.03;;
11092;SDS011;5600;50.864;6.102;2023-11-21T02:07:37;81.33;;;15.73;;
11092;SDS011;5600;50.864;6.102;2023-11-21T02:10:38;61.73;;;14.07;;
11092;SDS011;5600;50.864;6.102;2023-11-21T02:13:40;65.47;;;13.40;;
11092;SDS011;5600;50.864;6.102;2023-11-21T02:16:43;69.33;;;13.17;;
11092;SDS011;5600;50.864;6.102;2023-11-21T02:19:49;83.13;;;15.70;;
11092;SDS011;5600;50.864;6.102;2023-11-21T02:22:52;69.93;;;13.67;;
11092;SDS011;5600;50.864;6.102;2023-11-21T02:25:59;98.90;;;16.27;;
11092;SDS011;5600;50.864;6.102;2023-11-21T02:29:04;64.67;;;15.37;;
11092;SDS011;5600;50.864;6.102;2023-11-21T02:32:05;73.30;;;15.60;;
11092;SDS011;5600;50.864;6.102;2023-11-21T02:35:07;83.70;;;15.90;;
11092;SDS011;5600;50.864;6.102;2023-11-21T02:38:08;96.90;;;16.03;;
11092;SDS011;5600;50.864;6.102;2023-11-21T02:41:10;96.60;;;15.73;;
11092;SDS011;5600;50.864;6.102;2023-11-21T02:44:11;96.07;;;14.67;;
11092;SDS011;5600;50.864;6.102;2023-11-21T02:47:12;78.20;;;15.97;;
11092;SDS011;5600;50.864;6.102;2023-11-21T02:50:13;73.30;;;13.93;;
11092;SDS011;5600;50.864;6.102;2023-11-21T02:53:14;70.57;;;14.20;;
11092;SDS011;5600;50.864;6.102;2023-11-21T02:56:16;102.90;;;14.90;;
11092;SDS011;5600;50.864;6.102;2023-11-21T02:59:17;80.70;;;14.27;;
11092;SDS011;5600;50.864;6.102;2023-11-21T03:02:19;81.73;;;14.47;;
11092;SDS011;5600;50.864;6.102;2023-11-21T03:05:20;88.70;;;15.63;;
11092;SDS011;5600;50.864;6.102;2023-11-21T03:08:22;89.43;;;13.60;;
11092;SDS011;5600;50.864;6.102;2023-11-21T03:11:23;91.33;;;16.13;;
11092;SDS011;5600;50.864;6.102;2023-11-21T03:14:24;86.23;;;14.33;;
11092;SDS011;5600;50.864;6.102;2023-11-21T03:17:25;88.17;;;16.00;;
11092;SDS011;5600;50.864;6.102;2023-11-21T03:20:26;88.73;;;16.37;;
11092;SDS011;5600;50.864;6.102;2023-11-21T03:23:27;73.83;;;16.77;;
11092;SDS011;5600;50.864;6.102;2023-11-21T03:26:28;82.07;;;16.93;;
11092;SDS011;5600;50.864;6.102;2023-11-21T03:29:32;78.30;;;16.60;;
11092;SDS011;5600;50.864;6.102;2023-11-21T03:32:34;91.00;;;16.50;;
11092;SDS011;5600;50.864;6.102;2023-11-21T03:35:35;83.63;;;16.07;;
11092;SDS011;5600;50.864;6.102;2023-11-21T03:38:37;91.87;;;16.43;;
11092;SDS011;5600;50.864;6.102;2023-11-21T03:41:39;84.97;;;14.60;;
11092;SDS011;5600;50.864;6.102;2023-11-21T03:44:40;119.63;;;16.97;;
11092;SDS011;5600;50.864;6.102;2023-11-21T03:47:41;82.90;;;15.30;;
11092;SDS011;5600;50.864;6.102;2023-11-21T03:50:42;121.83;;;16.67;;
11092;SDS011;5600;50.864;6.102;2023-11-21T03:53:43;84.30;;;14.67;;
11092;SDS011;5600;50.864;6.102;2023-11-21T03:56:45;85.13;;;15.47;;
11092;SDS011;5600;50.864;6.102;2023-11-21T03:59:46;120.40;;;17.53;;
11092;SDS011;5600;50.864;6.102;2023-11-21T04:02:47;78.00;;;14.40;;
11092;SDS011;5600;50.864;6.102;2023-11-21T04:05:48;132.13;;;16.47;;
11092;SDS011;5600;50.864;6.102;2023-11-21T04:08:49;66.63;;;14.67;;
11092;SDS011;5600;50.864;6.102;2023-11-21T04:11:53;145.30;;;18.07;;
11092;SDS011;5600;50.864;6.102;2023-11-21T04:14:55;89.93;;;14.73;;
11092;SDS011;5600;50.864;6.102;2023-11-21T04:17:57;95.43;;;17.37;;
11092;SDS011;5600;50.864;6.102;2023-11-21T04:20:58;71.83;;;14.43;;
11092;SDS011;5600;50.864;6.102;2023-11-21T04:23:59;84.53;;;12.83;;
11092;SDS011;5600;50.864;6.102;2023-11-21T04:27:01;60.40;;;14.43;;
11092;SDS011;5600;50.864;6.102;2023-11-21T04:30:03;65.43;;;14.70;;
11092;SDS011;5600;50.864;6.102;2023-11-21T04:33:05;93.10;;;14.87;;
11092;SDS011;5600;50.864;6.102;2023-11-21T04:36:07;95.00;;;14.27;;
11092;SDS011;5600;50.864;6.102;2023-11-21T04:39:09;112.07;;;15.23;;
11092;SDS011;5600;50.864;6.102;2023-11-21T04:42:11;67.57;;;14.53;;
11092;SDS011;5600;50.864;6.102;2023-11-21T04:45:12;103.93;;;16.27;;
11092;SDS011;5600;50.864;6.102;2023-11-21T04:48:14;90.10;;;16.43;;
11092;SDS011;5600;50.864;6.102;2023-11-21T04:51:15;100.47;;;17.77;;
11092;SDS011;5600;50.864;6.102;2023-11-21T04:54:16;93.93;;;16.03;;
11092;SDS011;5600;50.864;6.102;2023-11-21T04:57:17;111.17;;;17.00;;
11092;SDS011;5600;50.864;6.102;2023-11-21T05:00:19;133.63;;;16.20;;
11092;SDS011;5600;50.864;6.102;2023-11-21T05:03:21;111.73;;;16.53;;
11092;SDS011;5600;50.864;6.102;2023-11-21T05:06:24;84.10;;;16.37;;
11092;SDS011;5600;50.864;6.102;2023-11-21T05:09:24;101.40;;;16.63;;
11092;SDS011;5600;50.864;6.102;2023-11-21T05:12:26;87.67;;;15.67;;
11092;SDS011;5600;50.864;6.102;2023-11-21T05:15:27;112.67;;;16.07;;
11092;SDS011;5600;50.864;6.102;2023-11-21T05:18:28;121.40;;;16.50;;
11092;SDS011;5600;50.864;6.102;2023-11-21T05:21:30;91.43;;;13.97;;
11092;SDS011;5600;50.864;6.102;2023-11-21T05:24:34;74.00;;;14.13;;
11092;SDS011;5600;50.864;6.102;2023-11-21T05:27:35;103.80;;;15.93;;
11092;SDS011;5600;50.864;6.102;2023-11-21T05:30:36;109.93;;;17.17;;
11092;SDS011;5600;50.864;6.102;2023-11-21T05:33:39;114.90;;;16.83;;
11092;SDS011;5600;50.864;6.102;2023-11-21T05:36:42;72.50;;;14.10;;
11092;SDS011;5600;50.864;6.102;2023-11-21T05:39:44;79.60;;;15.60;;
11092;SDS011;5600;50.864;6.102;2023-11-21T05:42:45;86.87;;;15.33;;
11092;SDS011;5600;50.864;6.102;2023-11-21T05:45:46;137.10;;;16.87;;
11092;SDS011;5600;50.864;6.102;2023-11-21T05:48:47;98.17;;;15.60;;
11092;SDS011;5600;50.864;6.102;2023-11-21T05:51:49;84.50;;;15.00;;
11092;SDS011;5600;50.864;6.102;2023-11-21T05:54:50;120.80;;;16.87;;
11092;SDS011;5600;50.864;6.102;2023-11-21T05:57:51;98.33;;;15.77;;
11092;SDS011;5600;50.864;6.102;2023-11-21T06:00:52;95.03;;;16.30;;
11092;SDS011;5600;50.864;6.102;2023-11-21T06:03:53;93.77;;;16.37;;
11092;SDS011;5600;50.864;6.102;2023-11-21T06:06:55;101.20;;;16.90;;
11092;SDS011;5600;50.864;6.102;2023-11-21T06:09:55;90.87;;;15.70;;
11092;SDS011;5600;50.864;6.102;2023-11-21T06:12:57;87.40;;;15.53;;
11092;SDS011;5600;50.864;6.102;2023-11-21T06:15:58;155.57;;;17.23;;
11092;SDS011;5600;50.864;6.102;2023-11-21T06:19:00;105.93;;;17.73;;
11092;SDS011;5600;50.864;6.102;2023-11-21T06:22:01;85.33;;;16.33;;
11092;SDS011;5600;50.864;6.102;2023-11-21T06:25:03;101.77;;;17.93;;
11092;SDS011;5600;50.864;6.102;2023-11-21T06:28:06;140.97;;;19.30;;
11092;SDS011;5600;50.864;6.102;2023-11-21T06:31:07;133.97;;;18.90;;
11092;SDS011;5600;50.864;6.102;2023-11-21T06:34:08;106.47;;;18.93;;
11092;SDS011;5600;50.864;6.102;2023-11-21T06:37:10;143.90;;;20.20;;
11092;SDS011;5600;50.864;6.102;2023-11-21T06:40:12;202.47;;;21.47;;
11092;SDS011;5600;50.864;6.102;2023-11-21T06:43:15;154.73;;;19.00;;
11092;SDS011;5600;50.864;6.102;2023-11-21T06:46:16;144.07;;;19.80;;
11092;SDS011;5600;50.864;6.102;2023-11-21T06:49:17;130.93;;;18.93;;
11092;SDS011;5600;50.864;6.102;2023-11-21T06:52:19;168.40;;;21.90;;
11092;SDS011;5600;50.864;6.102;2023-11-21T06:55:20;255.17;;;23.93;;
11092;SDS011;5600;50.864;6.102;2023-11-21T06:58:21;118.27;;;20.07;;
11092;SDS011;5600;50.864;6.102;2023-11-21T07:01:22;134.80;;;20.10;;
11092;SDS011;5600;50.864;6.102;2023-11-21T07:04:25;175.33;;;22.03;;
11092;SDS011;5600;50.864;6.102;2023-11-21T07:07:27;122.60;;;20.07;;
11092;SDS011;5600;50.864;6.102;2023-11-21T07:10:28;116.00;;;20.57;;
11092;SDS011;5600;50.864;6.102;2023-11-21T07:13:29;117.67;;;21.07;;
11092;SDS011;5600;50.864;6.102;2023-11-21T07:16:31;150.07;;;21.67;;
11092;SDS011;5600;50.864;6.102;2023-11-21T07:19:35;95.30;;;19.83;;
11092;SDS011;5600;50.864;6.102;2023-11-21T07:22:36;117.03;;;20.10;;
11092;SDS011;5600;50.864;6.102;2023-11-21T07:25:37;148.20;;;21.13;;
11092;SDS011;5600;50.864;6.102;2023-11-21T07:28:38;217.13;;;24.10;;
11092;SDS011;5600;50.864;6.102;2023-11-21T07:31:39;139.00;;;21.03;;
11092;SDS011;5600;50.864;6.102;2023-11-21T07:34:41;110.77;;;19.50;;
11092;SDS011;5600;50.864;6.102;2023-11-21T07:37:42;103.07;;;20.27;;
11092;SDS011;5600;50.864;6.102;2023-11-21T07:40:43;110.10;;;19.60;;
11092;SDS011;5600;50.864;6.102;2023-11-21T07:43:44;93.90;;;18.30;;
11092;SDS011;5600;50.864;6.102;2023-11-21T07:46:46;97.90;;;19.50;;
11092;SDS011;5600;50.864;6.102;2023-11-21T07:49:47;135.53;;;21.30;;
11092;SDS011;5600;50.864;6.102;2023-11-21T07:52:48;141.03;;;20.03;;
11092;SDS011;5600;50.864;6.102;2023-11-21T07:55:49;186.60;;;21.57;;
11092;SDS011;5600;50.864;6.102;2023-11-21T07:58:51;153.87;;;21.30;;
11092;SDS011;5600;50.864;6.102;2023-11-21T08:01:52;229.60;;;23.53;;
11092;SDS011;5600;50.864;6.102;2023-11-21T08:04:53;164.33;;;22.87;;
11092;SDS011;5600;50.864;6.102;2023-11-21T08:07:57;124.37;;;21.20;;
11092;SDS011;5600;50.864;6.102;2023-11-21T08:10:58;129.63;;;19.77;;
11092;SDS011;5600;50.864;6.102;2023-11-21T08:14:01;145.37;;;21.53;;
11092;SDS011;5600;50.864;6.102;2023-11-21T08:17:02;136.93;;;19.40;;
11092;SDS011;5600;50.864;6.102;2023-11-21T08:20:04;143.47;;;19.80;;
11092;SDS011;5600;50.864;6.102;2023-11-21T08:23:06;171.63;;;20.80;;
11092;SDS011;5600;50.864;6.102;2023-11-21T08:26:07;123.93;;;20.87;;
11092;SDS011;5600;50.864;6.102;2023-11-21T08:29:09;84.10;;;15.50;;
11092;SDS011;5600;50.864;6.102;2023-11-21T08:32:10;119.63;;;19.63;;
11092;SDS011;5600;50.864;6.102;2023-11-21T08:35:11;116.33;;;18.67;;
11092;SDS011;5600;50.864;6.102;2023-11-21T08:38:12;105.00;;;18.50;;
11092;SDS011;5600;50.864;6.102;2023-11-21T08:41:13;117.00;;;19.10;;
11092;SDS011;5600;50.864;6.102;2023-11-21T08:44:16;127.53;;;19.37;;
11092;SDS011;5600;50.864;6.102;2023-11-21T08:47:18;111.50;;;18.67;;
11092;SDS011;5600;50.864;6.102;2023-11-21T08:50:19;124.77;;;19.20;;
11092;SDS011;5600;50.864;6.102;2023-11-21T08:53:20;110.20;;;18.57;;
11092;SDS011;5600;50.864;6.102;2023-11-21T08:56:21;157.87;;;19.23;;
11092;SDS011;5600;50.864;6.102;2023-11-21T08:59:22;126.47;;;18.07;;
11092;SDS011;5600;50.864;6.102;2023-11-21T09:02:27;103.87;;;17.63;;
11092;SDS011;5600;50.864;6.102;2023-11-21T09:05:27;106.30;;;16.63;;
11092;SDS011;5600;50.864;6.102;2023-11-21T09:08:29;127.40;;;17.80;;
11092;SDS011;5600;50.864;6.102;2023-11-21T09:11:30;127.57;;;17.37;;
11092;SDS011;5600;50.864;6.102;2023-11-21T09:14:33;107.90;;;17.23;;
11092;SDS011;5600;50.864;6.102;2023-11-21T09:17:34;161.97;;;18.53;;
11092;SDS011;5600;50.864;6.102;2023-11-21T09:20:36;158.50;;;19.20;;
11092;SDS011;5600;50.864;6.102;2023-11-21T09:23:38;170.60;;;19.83;;
11092;SDS011;5600;50.864;6.102;2023-11-21T09:26:39;123.43;;;17.70;;
11092;SDS011;5600;50.864;6.102;2023-11-21T09:29:40;157.70;;;19.10;;
11092;SDS011;5600;50.864;6.102;2023-11-21T09:32:41;126.07;;;17.67;;
11092;SDS011;5600;50.864;6.102;2023-11-21T09:35:45;176.43;;;19.10;;
11092;SDS011;5600;50.864;6.102;2023-11-21T09:38:47;127.07;;;17.77;;
11092;SDS011;5600;50.864;6.102;2023-11-21T09:41:51;135.90;;;18.53;;
11092;SDS011;5600;50.864;6.102;2023-11-21T09:45:02;95.77;;;15.73;;
11092;SDS011;5600;50.864;6.102;2023-11-21T09:48:06;96.27;;;16.77;;
11092;SDS011;5600;50.864;6.102;2023-11-21T09:51:08;121.73;;;19.53;;
11092;SDS011;5600;50.864;6.102;2023-11-21T09:54:10;116.17;;;17.90;;
11092;SDS011;5600;50.864;6.102;2023-11-21T09:57:11;104.90;;;18.70;;
11092;SDS011;5600;50.864;6.102;2023-11-21T10:00:12;114.57;;;16.97;;
11092;SDS011;5600;50.864;6.102;2023-11-21T10:03:17;100.73;;;16.70;;
11092;SDS011;5600;50.864;6.102;2023-11-21T10:06:18;108.87;;;15.83;;
11092;SDS011;5600;50.864;6.102;2023-11-21T10:09:20;138.50;;;18.93;;
11092;SDS011;5600;50.864;6.102;2023-11-21T10:12:21;100.83;;;16.20;;
11092;SDS011;5600;50.864;6.102;2023-11-21T10:15:26;101.87;;;15.93;;
11092;SDS011;5600;50.864;6.102;2023-11-21T10:18:27;92.63;;;16.50;;
11092;SDS011;5600;50.864;6.102;2023-11-21T10:21:28;162.73;;;19.03;;
11092;SDS011;5600;50.864;6.102;2023-11-21T10:24:29;74.03;;;15.17;;
11092;SDS011;5600;50.864;6.102;2023-11-21T10:27:32;79.70;;;14.53;;
11092;SDS011;5600;50.864;6.102;2023-11-21T10:30:36;90.43;;;14.20;;
11092;SDS011;5600;50.864;6.102;2023-11-21T10:33:37;81.27;;;13.27;;
11092;SDS011;5600;50.864;6.102;2023-11-21T10:36:39;126.40;;;15.87;;
11092;SDS011;5600;50.864;6.102;2023-11-21T10:39:40;118.63;;;13.27;;
11092;SDS011;5600;50.864;6.102;2023-11-21T10:42:44;99.47;;;13.83;;
11092;SDS011;5600;50.864;6.102;2023-11-21T10:45:45;103.33;;;14.17;;
11092;SDS011;5600;50.864;6.102;2023-11-21T10:48:50;120.70;;;15.40;;
11092;SDS011;5600;50.864;6.102;2023-11-21T10:51:53;118.77;;;14.93;;
11092;SDS011;5600;50.864;6.102;2023-11-21T10:54:54;112.40;;;15.33;;
11092;SDS011;5600;50.864;6.102;2023-11-21T10:57:55;105.73;;;14.23;;
11092;SDS011;5600;50.864;6.102;2023-11-21T11:00:59;112.47;;;15.33;;
11092;SDS011;5600;50.864;6.102;2023-11-21T11:04:00;114.03;;;15.17;;
11092;SDS011;5600;50.864;6.102;2023-11-21T11:07:03;117.03;;;14.53;;
11092;SDS011;5600;50.864;6.102;2023-11-21T11:10:04;75.83;;;12.77;;
11092;SDS011;5600;50.864;6.102;2023-11-21T11:13:08;91.87;;;17.33;;
11092;SDS011;5600;50.864;6.102;2023-11-21T11:16:09;103.37;;;14.53;;
11092;SDS011;5600;50.864;6.102;2023-11-21T11:19:10;70.93;;;11.07;;
11092;SDS011;5600;50.864;6.102;2023-11-21T11:28:43;89.10;;;12.67;;
11092;SDS011;5600;50.864;6.102;2023-11-21T11:31:48;105.37;;;13.47;;
11092;SDS011;5600;50.864;6.102;2023-11-21T11:35:10;96.63;;;12.63;;
11092;SDS011;5600;50.864;6.102;2023-11-21T11:38:14;95.27;;;12.00;;
11092;SDS011;5600;50.864;6.102;2023-11-21T11:41:24;139.73;;;13.53;;
11092;SDS011;5600;50.864;6.102;2023-11-21T11:44:47;122.87;;;13.77;;
11092;SDS011;5600;50.864;6.102;2023-11-21T11:47:47;117.67;;;13.47;;
11092;SDS011;5600;50.864;6.102;2023-11-21T11:54:19;102.33;;;12.83;;
11092;SDS011;5600;50.864;6.102;2023-11-21T11:57:35;53.60;;;10.93;;
11092;SDS011;5600;50.864;6.102;2023-11-21T12:00:38;83.23;;;11.03;;
11092;SDS011;5600;50.864;6.102;2023-11-21T12:03:40;80.23;;;11.50;;
11092;SDS011;5600;50.864;6.102;2023-11-21T12:06:41;62.27;;;11.40;;
11092;SDS011;5600;50.864;6.102;2023-11-21T12:09:42;170.63;;;15.20;;
11092;SDS011;5600;50.864;6.102;2023-11-21T12:12:45;122.93;;;12.83;;
11092;SDS011;5600;50.864;6.102;2023-11-21T12:15:46;126.23;;;11.60;;
11092;SDS011;5600;50.864;6.102;2023-11-21T12:18:48;211.47;;;14.83;;
11092;SDS011;5600;50.864;6.102;2023-11-21T12:21:49;160.23;;;13.30;;
11092;SDS011;5600;50.864;6.102;2023-11-21T12:24:50;114.90;;;11.33;;
11092;SDS011;5600;50.864;6.102;2023-11-21T12:27:51;167.43;;;13.50;;
11092;SDS011;5600;50.864;6.102;2023-11-21T12:30:53;195.43;;;14.73;;
11092;SDS011;5600;50.864;6.102;2023-11-21T12:33:55;222.97;;;16.50;;
11092;SDS011;5600;50.864;6.102;2023-11-21T12:36:56;177.07;;;13.93;;
11092;SDS011;5600;50.864;6.102;2023-11-21T12:39:57;109.10;;;11.43;;
11092;SDS011;5600;50.864;6.102;2023-11-21T12:42:58;73.53;;;10.13;;
11092;SDS011;5600;50.864;6.102;2023-11-21T12:46:04;167.97;;;13.67;;
11092;SDS011;5600;50.864;6.102;2023-11-21T12:49:05;174.70;;;13.67;;
11092;SDS011;5600;50.864;6.102;2023-11-21T12:52:06;165.17;;;13.50;;
11092;SDS011;5600;50.864;6.102;2023-11-21T12:55:08;91.87;;;10.83;;
11092;SDS011;5600;50.864;6.102;2023-11-21T12:58:10;174.43;;;14.33;;
11092;SDS011;5600;50.864;6.102;2023-11-21T13:01:13;97.40;;;11.43;;
11092;SDS011;5600;50.864;6.102;2023-11-21T13:04:18;96.43;;;11.53;;
11092;SDS011;5600;50.864;6.102;2023-11-21T13:07:19;96.33;;;12.00;;
11092;SDS011;5600;50.864;6.102;2023-11-21T13:10:26;103.77;;;11.97;;
11092;SDS011;5600;50.864;6.102;2023-11-21T13:13:30;96.27;;;11.93;;
11092;SDS011;5600;50.864;6.102;2023-11-21T13:16:31;76.13;;;11.40;;
11092;SDS011;5600;50.864;6.102;2023-11-21T13:19:33;122.23;;;12.87;;
11092;SDS011;5600;50.864;6.102;2023-11-21T13:22:33;106.53;;;13.10;;
11092;SDS011;5600;50.864;6.102;2023-11-21T13:25:35;53.63;;;11.00;;
11092;SDS011;5600;50.864;6.102;2023-11-21T13:28:37;94.33;;;12.87;;
11092;SDS011;5600;50.864;6.102;2023-11-21T13:31:40;104.97;;;12.23;;
11092;SDS011;5600;50.864;6.102;2023-11-21T13:34:42;158.13;;;14.97;;
11092;SDS011;5600;50.864;6.102;2023-11-21T13:37:48;226.33;;;17.90;;
11092;SDS011;5600;50.864;6.102;2023-11-21T13:40:52;89.40;;;11.30;;
11092;SDS011;5600;50.864;6.102;2023-11-21T13:43:54;165.30;;;14.07;;
11092;SDS011;5600;50.864;6.102;2023-11-21T13:47:03;157.80;;;13.87;;
11092;SDS011;5600;50.864;6.102;2023-11-21T13:50:06;99.23;;;11.33;;
11092;SDS011;5600;50.864;6.102;2023-11-21T13:53:17;67.53;;;10.30;;
11092;SDS011;5600;50.864;6.102;2023-11-21T13:56:22;101.90;;;12.83;;
11092;SDS011;5600;50.864;6.102;2023-11-21T13:59:24;75.03;;;11.70;;
11092;SDS011;5600;50.864;6.102;2023-11-21T14:02:28;98.00;;;13.97;;
11092;SDS011;5600;50.864;6.102;2023-11-21T14:05:34;128.17;;;13.73;;
11092;SDS011;5600;50.864;6.102;2023-11-21T14:08:36;136.67;;;15.80;;
11092;SDS011;5600;50.864;6.102;2023-11-21T14:11:37;262.17;;;19.03;;
11092;SDS011;5600;50.864;6.102;2023-11-21T14:14:38;194.40;;;17.03;;
11092;SDS011;5600;50.864;6.102;2023-11-21T14:17:44;106.97;;;12.83;;
11092;SDS011;5600;50.864;6.102;2023-11-21T14:20:45;104.60;;;13.27;;
11092;SDS011;5600;50.864;6.102;2023-11-21T14:23:47;91.20;;;11.40;;
11092;SDS011;5600;50.864;6.102;2023-11-21T14:26:48;62.27;;;9.40;;
11092;SDS011;5600;50.864;6.102;2023-11-21T14:29:49;93.47;;;12.10;;
11092;SDS011;5600;50.864;6.102;2023-11-21T14:32:50;67.53;;;11.23;;
11092;SDS011;5600;50.864;6.102;2023-11-21T14:35:52;139.77;;;14.30;;
11092;SDS011;5600;50.864;6.102;2023-11-21T14:38:53;134.47;;;14.17;;
11092;SDS011;5600;50.864;6.102;2023-11-21T14:41:54;128.60;;;13.37;;
11092;SDS011;5600;50.864;6.102;2023-11-21T14:45:03;127.77;;;13.00;;
11092;SDS011;5600;50.864;6.102;2023-11-21T14:48:07;153.87;;;13.53;;
11092;SDS011;5600;50.864;6.102;2023-11-21T14:51:16;109.00;;;12.30;;
11092;SDS011;5600;50.864;6.102;2023-11-21T14:54:28;122.57;;;12.20;;
11092;SDS011;5600;50.864;6.102;2023-11-21T14:57:40;73.33;;;11.00;;
11092;SDS011;5600;50.864;6.102;2023-11-21T15:00:40;109.40;;;13.10;;
11092;SDS011;5600;50.864;6.102;2023-11-21T15:03:44;102.67;;;11.53;;
11092;SDS011;5600;50.864;6.102;2023-11-21T15:06:49;97.07;;;11.87;;
11092;SDS011;5600;50.864;6.102;2023-11-21T15:09:53;91.63;;;10.27;;
11092;SDS011;5600;50.864;6.102;2023-11-21T15:12:54;121.13;;;11.47;;
11092;SDS011;5600;50.864;6.102;2023-11-21T15:15:57;280.70;;;17.00;;
11092;SDS011;5600;50.864;6.102;2023-11-21T15:19:07;94.03;;;9.37;;
11092;SDS011;5600;50.864;6.102;2023-11-21T15:22:09;133.97;;;11.33;;
11092;SDS011;5600;50.864;6.102;2023-11-21T15:25:15;107.23;;;9.67;;
11092;SDS011;5600;50.864;6.102;2023-11-21T15:28:16;89.93;;;9.73;;
11092;SDS011;5600;50.864;6.102;2023-11-21T15:31:19;73.33;;;9.77;;
11092;SDS011;5600;50.864;6.102;2023-11-21T15:34:24;85.27;;;9.63;;
11092;SDS011;5600;50.864;6.102;2023-11-21T15:37:26;131.30;;;11.43;;
11092;SDS011;5600;50.864;6.102;2023-11-21T15:40:29;115.10;;;10.93;;
11092;SDS011;5600;50.864;6.102;2023-11-21T15:43:31;106.47;;;11.87;;
11092;SDS011;5600;50.864;6.102;2023-11-21T15:46:34;91.07;;;10.63;;
11092;SDS011;5600;50.864;6.102;2023-11-21T15:49:40;165.90;;;14.57;;
11092;SDS011;5600;50.864;6.102;2023-11-21T15:52:42;163.17;;;14.17;;
11092;SDS011;5600;50.864;6.102;2023-11-21T15:55:44;128.70;;;12.53;;
11092;SDS011;5600;50.864;6.102;2023-11-21T15:58:45;118.07;;;12.33;;
11092;SDS011;5600;50.864;6.102;2023-11-21T16:01:47;141.27;;;13.47;;
11092;SDS011;5600;50.864;6.102;2023-11-21T16:04:48;112.40;;;11.83;;
11092;SDS011;5600;50.864;6.102;2023-11-21T16:07:49;66.30;;;9.93;;
11092;SDS011;5600;50.864;6.102;2023-11-21T16:10:51;121.60;;;13.00;;
11092;SDS011;5600;50.864;6.102;2023-11-21T16:13:52;195.70;;;39.80;;
11092;SDS011;5600;50.864;6.102;2023-11-21T16:16:53;147.27;;;15.93;;
11092;SDS011;5600;50.864;6.102;2023-11-21T16:19:55;120.23;;;12.93;;
11092;SDS011;5600;50.864;6.102;2023-11-21T16:22:56;90.20;;;12.50;;
11092;SDS011;5600;50.864;6.102;2023-11-21T16:25:57;142.70;;;14.30;;
11092;SDS011;5600;50.864;6.102;2023-11-21T16:28:58;70.67;;;11.27;;
11092;SDS011;5600;50.864;6.102;2023-11-21T16:31:59;72.83;;;11.20;;
11092;SDS011;5600;50.864;6.102;2023-11-21T16:35:01;81.60;;;11.33;;
11092;SDS011;5600;50.864;6.102;2023-11-21T16:38:03;73.83;;;10.83;;
11092;SDS011;5600;50.864;6.102;2023-11-21T16:41:04;76.13;;;11.23;;
11092;SDS011;5600;50.864;6.102;2023-11-21T16:44:06;96.37;;;12.37;;
11092;SDS011;5600;50.864;6.102;2023-11-21T16:47:14;100.83;;;14.77;;
11092;SDS011;5600;50.864;6.102;2023-11-21T16:50:16;172.43;;;15.53;;
11092;SDS011;5600;50.864;6.102;2023-11-21T16:53:18;144.50;;;14.83;;
11092;SDS011;5600;50.864;6.102;2023-11-21T16:56:19;110.07;;;13.17;;
11092;SDS011;5600;50.864;6.102;2023-11-21T16:59:20;160.27;;;15.13;;
11092;SDS011;5600;50.864;6.102;2023-11-21T17:02:21;95.87;;;13.40;;
11092;SDS011;5600;50.864;6.102;2023-11-21T17:05:22;80.37;;;13.80;;
11092;SDS011;5600;50.864;6.102;2023-11-21T17:08:23;130.07;;;15.83;;
11092;SDS011;5600;50.864;6.102;2023-11-21T17:11:25;90.37;;;14.13;;
11092;SDS011;5600;50.864;6.102;2023-11-21T17:14:26;107.10;;;16.13;;
11092;SDS011;5600;50.864;6.102;2023-11-21T17:17:27;144.83;;;17.43;;
11092;SDS011;5600;50.864;6.102;2023-11-21T17:20:28;159.20;;;16.40;;
11092;SDS011;5600;50.864;6.102;2023-11-21T17:23:30;70.90;;;15.13;;
11092;SDS011;5600;50.864;6.102;2023-11-21T17:26:31;90.03;;;15.70;;
11092;SDS011;5600;50.864;6.102;2023-11-21T17:29:32;92.53;;;15.80;;
11092;SDS011;5600;50.864;6.102;2023-11-21T17:32:33;80.70;;;14.77;;
11092;SDS011;5600;50.864;6.102;2023-11-21T17:35:35;142.93;;;18.40;;
11092;SDS011;5600;50.864;6.102;2023-11-21T17:38:37;89.63;;;15.77;;
11092;SDS011;5600;50.864;6.102;2023-11-21T17:41:38;167.13;;;18.83;;
11092;SDS011;5600;50.864;6.102;2023-11-21T17:44:40;134.03;;;17.07;;
11092;SDS011;5600;50.864;6.102;2023-11-21T17:47:41;98.97;;;14.93;;
11092;SDS011;5600;50.864;6.102;2023-11-21T17:50:42;133.40;;;15.73;;
11092;SDS011;5600;50.864;6.102;2023-11-21T17:53:43;68.03;;;14.20;;
11092;SDS011;5600;50.864;6.102;2023-11-21T17:56:45;110.77;;;14.23;;
11092;SDS011;5600;50.864;6.102;2023-11-21T17:59:48;97.83;;;14.13;;
11092;SDS011;5600;50.864;6.102;2023-11-21T18:02:50;105.07;;;14.23;;